Time;durP1;ratioP1;P1;durP2;ratioP2;P2;SDS_P1;SDS_P2;PMS_P1;PMS_P2;Temp;Humidity;BMP_temperature;BMP_pressure;BME280_temperature;BME280_humidity;BME280_pressure;Samples;Min_cycle;Max_cycle;Signal;HPM_P1;HPM_P2
2023/09/04 00:01:08;;;;;;;69.90;10.77;;;;;;;;;;5052210;28;20029;-33
2023/09/04 00:03:35;;;;;;;80.97;11.38;;;;;;;;;;5052005;28;20029;-33
2023/09/04 00:06:02;;;;;;;86.53;10.68;;;;;;;;;;5052173;28;20033;-33
2023/09/04 00:08:29;;;;;;;66.13;11.88;;;;;;;;;;5052217;28;20058;-33
2023/09/04 00:10:56;;;;;;;81.97;12.13;;;;;;;;;;5052049;28;20032;-33
2023/09/04 00:13:23;;;;;;;69.75;11.88;;;;;;;;;;5051089;28;20194;-33
2023/09/04 00:15:55;;;;;;;75.03;11.25;;;;;;;;;;5051926;28;20036;-33
2023/09/04 00:18:22;;;;;;;93.25;12.90;;;;;;;;;;5064920;28;20028;-33
2023/09/04 00:20:51;;;;;;;76.05;12.07;;;;;;;;;;5052379;28;20052;-37
2023/09/04 00:23:18;;;;;;;106.63;13.32;;;;;;;;;;5053701;28;20850;-35
2023/09/04 00:25:45;;;;;;;93.38;12.43;;;;;;;;;;5046268;28;20395;-33
2023/09/04 00:28:13;;;;;;;132.43;17.15;;;;;;;;;;5050901;28;20677;-45
2023/09/04 00:30:40;;;;;;;130.52;14.85;;;;;;;;;;5050657;28;20039;-40
2023/09/04 00:33:07;;;;;;;113.63;14.63;;;;;;;;;;5051178;28;20108;-43
2023/09/04 00:35:34;;;;;;;94.95;13.48;;;;;;;;;;5050011;28;20045;-42
2023/09/04 00:38:01;;;;;;;89.90;13.38;;;;;;;;;;5050102;28;20025;-44
2023/09/04 00:40:28;;;;;;;110.93;13.65;;;;;;;;;;5037909;28;20033;-43
2023/09/04 00:42:55;;;;;;;91.13;11.75;;;;;;;;;;5031650;28;20037;-44
2023/09/04 00:45:22;;;;;;;93.55;12.48;;;;;;;;;;5032417;28;20052;-46
2023/09/04 00:47:49;;;;;;;85.93;12.55;;;;;;;;;;5051489;28;20025;-36
2023/09/04 00:50:18;;;;;;;75.30;12.45;;;;;;;;;;5051170;28;20031;-41
2023/09/04 00:52:45;;;;;;;87.72;13.07;;;;;;;;;;5049894;28;20491;-45
2023/09/04 00:55:13;;;;;;;88.80;13.20;;;;;;;;;;5051453;28;20041;-43
2023/09/04 00:57:42;;;;;;;85.18;12.45;;;;;;;;;;5051363;28;20029;-45
2023/09/04 01:00:10;;;;;;;70.85;11.82;;;;;;;;;;5049944;28;20660;-42
2023/09/04 01:02:39;;;;;;;85.57;12.73;;;;;;;;;;5051224;28;20041;-45
2023/09/04 01:05:06;;;;;;;91.25;12.25;;;;;;;;;;5050867;28;20506;-43
2023/09/04 01:07:34;;;;;;;81.25;12.10;;;;;;;;;;5042534;28;20048;-45
2023/09/04 01:10:03;;;;;;;67.13;12.05;;;;;;;;;;5038365;28;20037;-45
2023/09/04 01:12:37;;;;;;;89.30;14.45;;;;;;;;;;5047527;28;20030;-46
2023/09/04 01:15:04;;;;;;;85.60;13.80;;;;;;;;;;5033160;28;20442;-45
2023/09/04 01:17:35;;;;;;;83.03;13.40;;;;;;;;;;5043509;28;20090;-46
2023/09/04 01:20:13;;;;;;;68.10;11.98;;;;;;;;;;5031372;28;20056;-46
2023/09/04 01:22:40;;;;;;;69.15;12.35;;;;;;;;;;5046841;28;20091;-46
2023/09/04 01:25:07;;;;;;;76.00;13.15;;;;;;;;;;5049218;28;20510;-45
2023/09/04 01:27:39;;;;;;;69.78;10.85;;;;;;;;;;5049909;28;20035;-45
2023/09/04 01:33:12;;;;;;;64.82;10.18;;;;;;;;;;5026153;28;20533;-42
2023/09/04 01:35:40;;;;;;;54.08;9.80;;;;;;;;;;5029369;28;20040;-41
2023/09/04 01:38:07;;;;;;;53.83;10.70;;;;;;;;;;5029572;28;20035;-41
2023/09/04 01:40:35;;;;;;;46.28;8.88;;;;;;;;;;5028871;28;20041;-41
2023/09/04 01:43:02;;;;;;;59.22;10.57;;;;;;;;;;5029205;28;20033;-41
2023/09/04 01:45:29;;;;;;;50.63;10.00;;;;;;;;;;5029553;28;20025;-42
2023/09/04 01:47:56;;;;;;;52.03;9.57;;;;;;;;;;5029638;28;20033;-42
2023/09/04 01:50:23;;;;;;;43.92;8.32;;;;;;;;;;5029714;28;20467;-41
2023/09/04 01:52:50;;;;;;;39.28;8.27;;;;;;;;;;5028830;28;20387;-41
2023/09/04 01:55:17;;;;;;;39.47;8.73;;;;;;;;;;5029741;28;20493;-42
2023/09/04 01:57:44;;;;;;;40.90;8.05;;;;;;;;;;5030222;28;20029;-41
2023/09/04 02:00:11;;;;;;;34.83;7.97;;;;;;;;;;5030128;28;20021;-41
2023/09/04 02:02:38;;;;;;;38.00;7.55;;;;;;;;;;5030132;28;20108;-42
2023/09/04 02:05:05;;;;;;;34.45;7.15;;;;;;;;;;5030072;28;20900;-42
2023/09/04 02:07:32;;;;;;;36.25;7.07;;;;;;;;;;5027653;28;20426;-45
2023/09/04 02:09:59;;;;;;;35.92;7.10;;;;;;;;;;5029273;28;20075;-41
2023/09/04 02:12:26;;;;;;;44.40;7.97;;;;;;;;;;5030060;28;20032;-41
2023/09/04 02:14:53;;;;;;;33.17;7.30;;;;;;;;;;5030343;28;20124;-42
2023/09/04 02:17:20;;;;;;;29.10;6.95;;;;;;;;;;5031528;28;20025;-41
2023/09/04 02:19:47;;;;;;;31.30;6.75;;;;;;;;;;5034142;28;20493;-41
2023/09/04 02:22:15;;;;;;;28.05;6.20;;;;;;;;;;5033647;28;20048;-41
2023/09/04 02:24:44;;;;;;;38.80;7.45;;;;;;;;;;5033857;28;20376;-41
2023/09/04 02:27:11;;;;;;;23.52;6.10;;;;;;;;;;5032597;28;20045;-42
2023/09/04 02:29:38;;;;;;;25.45;6.30;;;;;;;;;;5033989;28;20022;-42
2023/09/04 02:32:05;;;;;;;31.77;6.35;;;;;;;;;;5033710;28;20525;-42
2023/09/04 02:34:33;;;;;;;25.65;5.85;;;;;;;;;;5033790;28;20033;-42
2023/09/04 02:37:00;;;;;;;31.73;7.15;;;;;;;;;;5033139;28;20033;-42
2023/09/04 02:39:27;;;;;;;30.73;6.38;;;;;;;;;;5034063;28;20025;-42
2023/09/04 02:41:54;;;;;;;33.00;6.68;;;;;;;;;;5033700;28;20057;-41
2023/09/04 02:44:22;;;;;;;29.88;5.63;;;;;;;;;;5034353;28;20056;-42
2023/09/04 02:46:49;;;;;;;22.08;5.40;;;;;;;;;;5033928;28;20055;-43
2023/09/04 02:49:16;;;;;;;26.38;5.70;;;;;;;;;;5034285;28;20025;-42
2023/09/04 02:51:43;;;;;;;24.27;6.10;;;;;;;;;;5033846;28;20025;-42
2023/09/04 02:54:10;;;;;;;22.95;5.85;;;;;;;;;;5034154;28;20105;-42
2023/09/04 02:56:37;;;;;;;21.75;5.20;;;;;;;;;;5034132;28;20091;-42
2023/09/04 02:59:04;;;;;;;16.63;5.45;;;;;;;;;;5033744;28;20045;-41
2023/09/04 03:01:31;;;;;;;20.98;5.10;;;;;;;;;;5032551;28;20029;-42
2023/09/04 03:03:58;;;;;;;20.83;5.32;;;;;;;;;;5031967;28;20021;-42
2023/09/04 03:06:25;;;;;;;22.38;5.38;;;;;;;;;;5031659;28;20037;-42
2023/09/04 03:08:52;;;;;;;21.58;4.90;;;;;;;;;;5033570;28;20029;-42
2023/09/04 03:11:19;;;;;;;25.10;4.78;;;;;;;;;;5033831;28;20097;-42
2023/09/04 03:13:46;;;;;;;19.95;4.00;;;;;;;;;;5033271;28;20434;-42
2023/09/04 03:16:13;;;;;;;24.02;5.43;;;;;;;;;;5033863;28;20045;-42
2023/09/04 03:18:40;;;;;;;20.60;4.60;;;;;;;;;;5033484;28;20116;-42
2023/09/04 03:21:07;;;;;;;18.70;4.88;;;;;;;;;;5033583;28;20025;-42
2023/09/04 03:23:34;;;;;;;23.75;4.25;;;;;;;;;;5033475;28;20032;-42
2023/09/04 03:26:01;;;;;;;20.35;4.60;;;;;;;;;;5033676;28;20033;-42
2023/09/04 03:28:28;;;;;;;13.77;4.43;;;;;;;;;;5033367;28;20387;-41
2023/09/04 03:30:55;;;;;;;15.95;4.30;;;;;;;;;;5033262;28;20057;-42
2023/09/04 03:33:22;;;;;;;15.25;4.05;;;;;;;;;;5033414;28;20049;-42
2023/09/04 03:35:49;;;;;;;18.38;4.65;;;;;;;;;;5033319;28;20021;-41
2023/09/04 03:38:16;;;;;;;19.35;4.45;;;;;;;;;;5033278;28;20022;-42
2023/09/04 03:40:44;;;;;;;19.02;4.25;;;;;;;;;;5033212;28;20487;-42
2023/09/04 03:43:11;;;;;;;18.27;4.28;;;;;;;;;;5033262;28;20505;-41
2023/09/04 03:45:38;;;;;;;15.52;4.15;;;;;;;;;;5033209;28;20076;-42
2023/09/04 03:48:05;;;;;;;18.15;4.15;;;;;;;;;;5033162;28;20029;-42
2023/09/04 03:50:33;;;;;;;13.43;3.92;;;;;;;;;;5032993;28;20025;-42
2023/09/04 03:53:00;;;;;;;14.57;4.07;;;;;;;;;;5032973;28;20025;-42
2023/09/04 03:55:27;;;;;;;14.98;4.00;;;;;;;;;;5032917;28;20026;-42
2023/09/04 03:57:54;;;;;;;16.25;4.10;;;;;;;;;;5032856;28;20033;-42
2023/09/04 04:00:22;;;;;;;14.00;4.18;;;;;;;;;;5032850;28;20479;-42
2023/09/04 04:02:51;;;;;;;13.98;3.40;;;;;;;;;;5032784;28;20522;-42
2023/09/04 04:05:19;;;;;;;16.30;3.80;;;;;;;;;;5032883;28;20029;-42
2023/09/04 04:07:46;;;;;;;15.73;3.80;;;;;;;;;;5032699;28;20037;-43
2023/09/04 04:10:13;;;;;;;15.88;3.78;;;;;;;;;;5032457;28;20079;-43
2023/09/04 04:12:40;;;;;;;15.88;3.45;;;;;;;;;;5032658;28;20033;-42
2023/09/04 04:15:08;;;;;;;14.20;3.70;;;;;;;;;;5032537;28;20491;-43
2023/09/04 04:17:35;;;;;;;12.98;3.90;;;;;;;;;;5032555;28;20017;-42
2023/09/04 04:20:13;;;;;;;10.32;3.25;;;;;;;;;;5032525;28;20100;-43
2023/09/04 04:22:42;;;;;;;15.45;4.45;;;;;;;;;;5032397;28;20364;-42
2023/09/04 04:25:10;;;;;;;12.30;3.75;;;;;;;;;;5014571;28;20036;-42
2023/09/04 04:27:38;;;;;;;15.15;3.35;;;;;;;;;;5032298;28;20538;-42
2023/09/04 04:30:06;;;;;;;9.88;3.20;;;;;;;;;;5032250;28;20029;-42
2023/09/04 04:32:32;;;;;;;13.93;3.55;;;;;;;;;;5032204;28;20049;-42
2023/09/04 04:35:00;;;;;;;12.18;3.63;;;;;;;;;;5032263;28;20057;-43
2023/09/04 04:37:27;;;;;;;18.20;3.67;;;;;;;;;;5032048;28;20109;-43
2023/09/04 04:39:54;;;;;;;9.93;2.90;;;;;;;;;;5031661;28;20030;-42
2023/09/04 04:42:21;;;;;;;11.65;3.60;;;;;;;;;;5031970;28;20049;-42
2023/09/04 04:44:48;;;;;;;9.70;3.30;;;;;;;;;;5032154;28;20156;-42
2023/09/04 04:47:14;;;;;;;10.20;2.88;;;;;;;;;;5032099;28;20025;-42
2023/09/04 04:49:41;;;;;;;12.32;3.35;;;;;;;;;;5032089;28;20384;-42
2023/09/04 04:52:09;;;;;;;11.35;3.22;;;;;;;;;;5031891;28;20040;-42
2023/09/04 04:54:36;;;;;;;10.93;2.95;;;;;;;;;;5031798;28;20025;-42
2023/09/04 04:57:03;;;;;;;10.93;3.05;;;;;;;;;;5031996;28;20036;-42
2023/09/04 04:59:30;;;;;;;11.85;3.20;;;;;;;;;;5031885;28;20475;-42
2023/09/04 05:02:00;;;;;;;11.45;3.05;;;;;;;;;;5031808;28;20080;-42
2023/09/04 05:04:27;;;;;;;12.55;2.95;;;;;;;;;;5031709;28;20033;-42
2023/09/04 05:06:54;;;;;;;12.00;2.92;;;;;;;;;;5031784;28;20088;-42
2023/09/04 05:09:21;;;;;;;11.00;2.55;;;;;;;;;;5031536;28;20040;-42
2023/09/04 05:11:48;;;;;;;7.72;2.60;;;;;;;;;;5031635;28;20024;-42
2023/09/04 05:14:15;;;;;;;7.53;2.33;;;;;;;;;;5031602;28;20029;-42
2023/09/04 05:16:42;;;;;;;6.47;2.42;;;;;;;;;;5031671;28;20041;-42
2023/09/04 05:19:09;;;;;;;7.47;2.58;;;;;;;;;;5031620;28;20459;-42
2023/09/04 05:21:36;;;;;;;8.95;2.28;;;;;;;;;;5031427;28;20056;-41
2023/09/04 05:24:03;;;;;;;9.60;2.83;;;;;;;;;;5031616;28;20041;-42
2023/09/04 05:26:30;;;;;;;8.63;3.05;;;;;;;;;;5013569;28;20109;-42
2023/09/04 05:28:57;;;;;;;6.80;2.95;;;;;;;;;;5031567;28;20111;-42
2023/09/04 05:31:24;;;;;;;8.38;2.42;;;;;;;;;;5031221;28;20502;-42
2023/09/04 05:33:51;;;;;;;6.05;2.40;;;;;;;;;;5031546;28;20403;-42
2023/09/04 05:36:18;;;;;;;7.15;2.40;;;;;;;;;;5031420;28;20029;-42
2023/09/04 05:38:44;;;;;;;8.77;2.47;;;;;;;;;;5031220;28;20029;-44
2023/09/04 05:41:11;;;;;;;8.88;2.47;;;;;;;;;;5031346;28;20025;-42
2023/09/04 05:43:38;;;;;;;9.52;2.50;;;;;;;;;;5031286;28;20037;-42
2023/09/04 05:46:05;;;;;;;8.80;2.53;;;;;;;;;;5031417;28;20049;-42
2023/09/04 05:48:34;;;;;;;7.35;2.63;;;;;;;;;;5031185;28;20068;-42
2023/09/04 05:51:02;;;;;;;5.95;2.30;;;;;;;;;;5014478;28;20485;-42
2023/09/04 05:53:29;;;;;;;5.97;2.10;;;;;;;;;;5035304;28;20021;-42
2023/09/04 05:56:10;;;;;;;7.90;2.13;;;;;;;;;;5035268;28;20053;-42
2023/09/04 05:59:05;;;;;;;6.60;2.20;;;;;;;;;;5035099;28;20025;-42
2023/09/04 06:01:32;;;;;;;7.05;2.20;;;;;;;;;;5031945;28;20045;-43
2023/09/04 06:03:59;;;;;;;9.15;1.95;;;;;;;;;;5035073;28;20515;-42
2023/09/04 06:06:26;;;;;;;7.35;2.40;;;;;;;;;;5035149;28;20032;-42
2023/09/04 06:08:53;;;;;;;4.82;1.90;;;;;;;;;;5035178;28;20034;-42
2023/09/04 06:11:20;;;;;;;5.68;2.03;;;;;;;;;;5034938;28;20026;-42
2023/09/04 06:13:48;;;;;;;6.97;2.03;;;;;;;;;;5034959;28;20593;-42
2023/09/04 06:16:19;;;;;;;6.15;2.03;;;;;;;;;;5035016;28;20037;-43
2023/09/04 06:18:46;;;;;;;9.07;2.20;;;;;;;;;;5034914;28;20029;-42
2023/09/04 06:21:13;;;;;;;5.95;1.77;;;;;;;;;;5034715;28;20029;-42
2023/09/04 06:23:40;;;;;;;5.47;1.73;;;;;;;;;;5034831;28;20029;-42
2023/09/04 06:26:07;;;;;;;5.57;2.45;;;;;;;;;;5034651;28;20014;-42
2023/09/04 06:28:34;;;;;;;4.72;2.08;;;;;;;;;;5034712;28;20360;-42
2023/09/04 06:31:00;;;;;;;5.97;2.63;;;;;;;;;;5034411;28;20057;-42
2023/09/04 06:33:29;;;;;;;7.18;2.45;;;;;;;;;;5034519;28;20498;-42
2023/09/04 06:35:56;;;;;;;5.43;2.38;;;;;;;;;;5017038;28;20037;-42
2023/09/04 06:38:24;;;;;;;7.00;2.50;;;;;;;;;;5034339;28;20030;-42
2023/09/04 06:40:57;;;;;;;6.65;2.35;;;;;;;;;;5034427;28;20029;-41
2023/09/04 06:43:29;;;;;;;6.13;2.47;;;;;;;;;;5034240;28;20037;-42
2023/09/04 06:45:56;;;;;;;;;;;;;;;;;;5034713;28;20032;-42
2023/09/04 06:48:22;;;;;;;7.43;3.00;;;;;;;;;;5034294;28;19909;-41
2023/09/04 06:50:51;;;;;;;6.55;2.60;;;;;;;;;;5034203;28;20018;-42
2023/09/04 06:53:18;;;;;;;8.68;3.03;;;;;;;;;;5034254;28;20102;-41
2023/09/04 06:55:45;;;;;;;5.70;2.53;;;;;;;;;;5034147;28;20025;-42
2023/09/04 06:58:12;;;;;;;6.57;3.08;;;;;;;;;;5034010;28;20422;-42
2023/09/04 07:00:39;;;;;;;6.32;3.00;;;;;;;;;;5034092;28;20056;-41
2023/09/04 07:03:06;;;;;;;6.40;2.63;;;;;;;;;;5033365;28;20026;-41
2023/09/04 07:05:33;;;;;;;4.70;2.30;;;;;;;;;;5034067;28;20053;-42
2023/09/04 07:08:00;;;;;;;5.90;2.50;;;;;;;;;;5033923;28;20430;-42
2023/09/04 07:10:27;;;;;;;6.57;2.70;;;;;;;;;;5033789;28;20026;-41
2023/09/04 07:12:54;;;;;;;5.80;2.58;;;;;;;;;;5033739;28;20036;-41
2023/09/04 07:15:21;;;;;;;4.90;2.10;;;;;;;;;;5033603;28;20025;-41
2023/09/04 07:17:48;;;;;;;6.05;2.60;;;;;;;;;;5032459;28;20043;-41
2023/09/04 07:20:15;;;;;;;6.55;2.88;;;;;;;;;;5033484;28;20022;-42
2023/09/04 07:22:42;;;;;;;5.65;2.72;;;;;;;;;;5033677;28;20026;-42
2023/09/04 07:25:11;;;;;;;5.88;2.50;;;;;;;;;;5033655;28;20029;-42
2023/09/04 07:27:38;;;;;;;6.38;2.50;;;;;;;;;;5033441;28;20037;-42
2023/09/04 07:30:05;;;;;;;4.93;2.53;;;;;;;;;;5033535;28;20101;-42
2023/09/04 07:32:32;;;;;;;4.40;2.17;;;;;;;;;;5033419;28;20045;-42
2023/09/04 07:34:59;;;;;;;4.57;2.58;;;;;;;;;;5033396;28;20082;-42
2023/09/04 07:37:29;;;;;;;6.45;2.17;;;;;;;;;;5033279;28;20026;-41
2023/09/04 07:39:56;;;;;;;4.97;2.55;;;;;;;;;;5033358;28;20018;-41
2023/09/04 07:42:24;;;;;;;3.95;2.38;;;;;;;;;;5033429;28;20056;-42
2023/09/04 07:44:51;;;;;;;5.30;2.15;;;;;;;;;;5033101;28;20491;-42
2023/09/04 07:47:18;;;;;;;5.18;2.40;;;;;;;;;;5033276;28;20458;-41
2023/09/04 07:49:46;;;;;;;5.75;2.50;;;;;;;;;;5033097;28;20055;-41
2023/09/04 07:52:13;;;;;;;4.50;1.98;;;;;;;;;;5033151;28;20026;-42
2023/09/04 07:54:39;;;;;;;4.30;2.10;;;;;;;;;;5032986;28;20356;-42
2023/09/04 07:57:07;;;;;;;6.35;2.67;;;;;;;;;;5032841;28;20402;-41
2023/09/04 07:59:34;;;;;;;6.03;2.13;;;;;;;;;;5032872;28;20029;-41
2023/09/04 08:02:01;;;;;;;5.85;2.40;;;;;;;;;;5032810;28;20470;-42
2023/09/04 08:04:28;;;;;;;4.15;2.40;;;;;;;;;;5032928;28;20029;-44
2023/09/04 08:06:59;;;;;;;4.90;1.98;;;;;;;;;;5032948;28;20014;-42
2023/09/04 08:09:26;;;;;;;4.05;2.15;;;;;;;;;;5029839;28;20495;-43
2023/09/04 08:11:53;;;;;;;5.32;2.17;;;;;;;;;;5032746;28;20029;-43
2023/09/04 08:14:19;;;;;;;4.57;1.90;;;;;;;;;;5031717;28;20527;-41
2023/09/04 08:16:46;;;;;;;4.40;2.13;;;;;;;;;;5032695;28;20112;-41
2023/09/04 08:19:13;;;;;;;6.20;2.30;;;;;;;;;;5032729;28;20868;-42
2023/09/04 08:21:40;;;;;;;4.25;2.08;;;;;;;;;;5032525;28;20353;-42
2023/09/04 08:24:08;;;;;;;4.72;2.15;;;;;;;;;;5031084;28;20055;-41
2023/09/04 08:26:35;;;;;;;5.95;2.50;;;;;;;;;;5032505;28;20052;-42
2023/09/04 08:29:02;;;;;;;5.05;2.28;;;;;;;;;;5032337;28;20040;-41
2023/09/04 08:31:29;;;;;;;5.07;2.30;;;;;;;;;;5032170;28;20041;-42
2023/09/04 08:33:55;;;;;;;4.32;2.08;;;;;;;;;;5032293;28;20029;-41
2023/09/04 08:36:22;;;;;;;4.82;2.58;;;;;;;;;;5032300;28;20037;-41
2023/09/04 08:38:49;;;;;;;4.93;2.03;;;;;;;;;;5032157;28;20551;-42
2023/09/04 08:41:17;;;;;;;5.70;2.05;;;;;;;;;;5032132;28;20025;-42
2023/09/04 08:43:46;;;;;;;4.15;2.20;;;;;;;;;;5032220;28;20104;-41
2023/09/04 08:46:16;;;;;;;5.28;2.65;;;;;;;;;;5032181;28;20017;-41
2023/09/04 08:48:44;;;;;;;2.92;2.00;;;;;;;;;;5031975;28;20026;-41
2023/09/04 08:51:11;;;;;;;5.57;2.40;;;;;;;;;;5031814;28;20108;-42
2023/09/04 08:53:38;;;;;;;6.15;2.25;;;;;;;;;;5032018;28;20021;-41
2023/09/04 08:56:05;;;;;;;4.47;2.00;;;;;;;;;;5031960;28;20061;-42
2023/09/04 08:58:32;;;;;;;4.05;2.00;;;;;;;;;;5031983;28;20101;-42
2023/09/04 09:00:59;;;;;;;5.47;2.03;;;;;;;;;;5031810;28;20025;-42
2023/09/04 09:03:26;;;;;;;3.95;1.80;;;;;;;;;;5030544;28;20413;-42
2023/09/04 09:05:55;;;;;;;5.05;2.30;;;;;;;;;;5031853;28;20025;-43
2023/09/04 09:08:24;;;;;;;5.57;2.47;;;;;;;;;;5031688;28;20483;-42
2023/09/04 09:10:52;;;;;;;8.75;2.50;;;;;;;;;;5031514;28;20029;-42
2023/09/04 09:13:20;;;;;;;4.68;2.22;;;;;;;;;;5030459;28;20021;-41
2023/09/04 09:15:47;;;;;;;5.13;2.50;;;;;;;;;;5031495;28;20116;-42
2023/09/04 09:18:35;;;;;;;5.60;2.30;;;;;;;;;;5031778;28;20036;-41
2023/09/04 09:21:02;;;;;;;4.18;2.40;;;;;;;;;;5031604;28;20033;-41
2023/09/04 09:23:30;;;;;;;5.03;2.20;;;;;;;;;;5031643;28;20101;-41
2023/09/04 09:25:57;;;;;;;3.50;2.10;;;;;;;;;;5031299;28;20570;-42
2023/09/04 09:28:24;;;;;;;4.75;2.25;;;;;;;;;;5031635;28;20026;-42
2023/09/04 09:30:51;;;;;;;5.97;2.10;;;;;;;;;;5031348;28;20107;-42
2023/09/04 09:33:20;;;;;;;5.20;2.30;;;;;;;;;;5031565;28;20147;-42
2023/09/04 09:35:47;;;;;;;3.33;1.80;;;;;;;;;;5030586;28;20132;-42
2023/09/04 09:38:14;;;;;;;4.82;1.92;;;;;;;;;;5031486;28;20032;-41
2023/09/04 09:40:41;;;;;;;3.67;2.00;;;;;;;;;;5031035;28;20033;-41
2023/09/04 09:43:08;;;;;;;4.95;2.28;;;;;;;;;;5031291;28;20029;-41
2023/09/04 09:45:36;;;;;;;6.13;1.88;;;;;;;;;;5031161;28;20041;-40
2023/09/04 09:48:07;;;;;;;9.35;2.22;;;;;;;;;;5031393;28;20033;-41
2023/09/04 09:50:37;;;;;;;8.88;2.20;;;;;;;;;;5031071;28;20046;-41
2023/09/04 09:53:04;;;;;;;5.13;2.10;;;;;;;;;;5031149;28;20033;-42
2023/09/04 09:55:33;;;;;;;10.25;1.80;;;;;;;;;;5031271;28;20057;-41
2023/09/04 09:58:01;;;;;;;6.72;1.92;;;;;;;;;;5031389;28;20030;-41
2023/09/04 10:00:28;;;;;;;9.15;1.85;;;;;;;;;;5031060;28;20033;-41
2023/09/04 10:02:55;;;;;;;9.30;1.95;;;;;;;;;;5031349;28;20386;-41
2023/09/04 10:05:26;;;;;;;6.20;1.80;;;;;;;;;;5031319;28;20030;-41
2023/09/04 10:07:56;;;;;;;3.33;1.55;;;;;;;;;;5031267;28;20100;-41
2023/09/04 10:10:23;;;;;;;5.07;1.67;;;;;;;;;;5031165;28;20047;-41
2023/09/04 10:12:52;;;;;;;7.18;1.83;;;;;;;;;;5031210;28;20144;-41
2023/09/04 10:15:28;;;;;;;9.32;1.83;;;;;;;;;;5031173;28;20025;-41
2023/09/04 10:17:58;;;;;;;3.75;1.58;;;;;;;;;;5031032;28;20166;-41
2023/09/04 10:20:27;;;;;;;7.25;1.60;;;;;;;;;;5030900;28;20051;-41
2023/09/04 10:23:00;;;;;;;4.22;1.50;;;;;;;;;;5031045;28;20116;-41
2023/09/04 10:25:40;;;;;;;6.20;1.52;;;;;;;;;;5030986;28;20120;-41
2023/09/04 10:28:22;;;;;;;6.72;1.85;;;;;;;;;;5031096;28;20033;-41
2023/09/04 10:30:53;;;;;;;5.28;1.63;;;;;;;;;;5030495;28;20065;-41
2023/09/04 10:33:23;;;;;;;5.68;1.85;;;;;;;;;;5031069;28;20034;-41
2023/09/04 10:35:50;;;;;;;8.68;1.75;;;;;;;;;;5030992;28;20108;-41
2023/09/04 10:38:17;;;;;;;8.55;1.60;;;;;;;;;;5032209;28;20033;-41
2023/09/04 10:40:45;;;;;;;4.95;1.63;;;;;;;;;;5034371;28;20037;-41
2023/09/04 10:43:12;;;;;;;7.38;1.50;;;;;;;;;;5033928;28;20057;-41
2023/09/04 10:45:38;;;;;;;5.35;1.70;;;;;;;;;;5034095;28;20032;-41
2023/09/04 10:48:06;;;;;;;8.90;1.40;;;;;;;;;;5034349;28;20387;-41
2023/09/04 10:50:35;;;;;;;7.82;1.48;;;;;;;;;;5033882;28;20034;-41
2023/09/04 10:53:02;;;;;;;12.77;2.05;;;;;;;;;;5033621;28;20032;-41
2023/09/04 10:55:30;;;;;;;7.55;1.48;;;;;;;;;;5033700;28;20064;-42
2023/09/04 10:58:00;;;;;;;6.25;1.80;;;;;;;;;;5033638;28;20053;-41
2023/09/04 11:00:32;;;;;;;15.88;1.92;;;;;;;;;;5034033;28;20769;-38
2023/09/04 11:03:15;;;;;;;12.05;1.92;;;;;;;;;;5034012;28;20036;-38
2023/09/04 11:06:00;;;;;;;10.35;2.05;;;;;;;;;;5032668;28;20029;-37
2023/09/04 11:08:28;;;;;;;9.48;2.08;;;;;;;;;;5030774;28;20018;-38
2023/09/04 11:11:02;;;;;;;9.77;2.03;;;;;;;;;;5033642;28;20050;-38
2023/09/04 11:13:29;;;;;;;12.05;1.77;;;;;;;;;;5033837;28;20045;-38
2023/09/04 11:15:57;;;;;;;6.15;1.77;;;;;;;;;;5033716;28;20025;-37
2023/09/04 11:18:29;;;;;;;9.02;1.88;;;;;;;;;;5033819;28;20072;-38
2023/09/04 11:20:56;;;;;;;7.65;1.65;;;;;;;;;;5032450;28;20112;-38
2023/09/04 11:23:27;;;;;;;10.52;1.92;;;;;;;;;;5032860;28;20136;-38
2023/09/04 11:25:54;;;;;;;7.97;1.85;;;;;;;;;;5033405;28;20042;-38
2023/09/04 11:28:24;;;;;;;10.73;1.95;;;;;;;;;;5033464;28;20564;-38
2023/09/04 11:30:59;;;;;;;9.15;1.35;;;;;;;;;;5033712;28;20128;-37
2023/09/04 11:33:27;;;;;;;8.25;1.65;;;;;;;;;;5032786;28;20398;-37
2023/09/04 11:36:04;;;;;;;8.75;1.80;;;;;;;;;;5032692;28;20387;-39
2023/09/04 11:38:33;;;;;;;12.23;1.95;;;;;;;;;;5031448;28;20063;-39
2023/09/04 11:41:00;;;;;;;8.80;1.58;;;;;;;;;;5032414;28;20372;-39
2023/09/04 11:43:28;;;;;;;8.77;2.10;;;;;;;;;;5033000;28;20067;-39
2023/09/04 11:45:55;;;;;;;11.90;1.52;;;;;;;;;;5032815;28;20057;-40
2023/09/04 11:48:24;;;;;;;8.85;1.50;;;;;;;;;;5032789;28;20033;-39
2023/09/04 11:50:53;;;;;;;4.78;1.52;;;;;;;;;;5033198;28;20559;-39
2023/09/04 11:53:20;;;;;;;7.28;2.00;;;;;;;;;;5033115;28;20025;-39
2023/09/04 11:55:47;;;;;;;17.52;1.80;;;;;;;;;;5033016;28;20064;-39
2023/09/04 11:58:14;;;;;;;8.30;1.52;;;;;;;;;;5033117;28;20044;-39
2023/09/04 12:00:41;;;;;;;9.05;1.80;;;;;;;;;;5032790;28;20083;-39
2023/09/04 12:03:08;;;;;;;8.65;1.67;;;;;;;;;;5032942;28;20108;-39
2023/09/04 12:05:36;;;;;;;9.60;1.60;;;;;;;;;;5032904;28;20029;-39
2023/09/04 12:08:06;;;;;;;12.68;1.70;;;;;;;;;;5032878;28;20105;-39
2023/09/04 12:10:34;;;;;;;9.18;1.50;;;;;;;;;;5032740;28;20025;-39
2023/09/04 12:13:02;;;;;;;7.90;1.60;;;;;;;;;;5032779;28;20057;-39
2023/09/04 12:15:33;;;;;;;10.05;1.50;;;;;;;;;;5032665;28;20031;-39
2023/09/04 12:18:02;;;;;;;16.58;1.98;;;;;;;;;;5032734;28;20033;-39
2023/09/04 12:20:35;;;;;;;13.82;1.90;;;;;;;;;;5032462;28;20068;-39
2023/09/04 12:23:02;;;;;;;22.33;2.60;;;;;;;;;;5030438;28;20043;-39
2023/09/04 12:25:38;;;;;;;14.30;2.10;;;;;;;;;;5030861;28;20029;-43
2023/09/04 12:28:06;;;;;;;14.75;1.73;;;;;;;;;;5031160;28;20510;-40
2023/09/04 12:30:37;;;;;;;18.00;2.25;;;;;;;;;;5031418;28;20025;-39
2023/09/04 12:33:04;;;;;;;16.40;1.50;;;;;;;;;;5031356;28;20479;-39
2023/09/04 12:35:32;;;;;;;12.02;1.90;;;;;;;;;;5030607;28;20044;-39
2023/09/04 12:38:00;;;;;;;11.63;1.50;;;;;;;;;;5030666;28;20060;-39
2023/09/04 12:40:27;;;;;;;10.27;1.83;;;;;;;;;;5031367;28;20475;-39
2023/09/04 12:42:54;;;;;;;15.40;1.55;;;;;;;;;;5031327;28;20040;-39
2023/09/04 12:45:21;;;;;;;14.50;1.83;;;;;;;;;;5031144;28;20112;-39
2023/09/04 12:47:48;;;;;;;17.80;2.30;;;;;;;;;;5028524;28;20076;-40
2023/09/04 12:50:15;;;;;;;12.88;2.03;;;;;;;;;;5031222;28;20150;-39
2023/09/04 12:52:47;;;;;;;12.43;1.92;;;;;;;;;;5028681;28;20120;-39
2023/09/04 12:55:15;;;;;;;14.55;1.67;;;;;;;;;;5027418;28;20078;-39
2023/09/04 12:57:42;;;;;;;13.85;1.60;;;;;;;;;;5029663;28;20386;-39
2023/09/04 13:00:09;;;;;;;19.75;1.88;;;;;;;;;;5030795;28;20025;-39
2023/09/04 13:02:37;;;;;;;17.30;2.20;;;;;;;;;;5030790;28;20041;-39
2023/09/04 13:05:04;;;;;;;17.63;1.90;;;;;;;;;;5030818;28;20083;-39
2023/09/04 13:07:32;;;;;;;19.08;2.50;;;;;;;;;;5028426;28;20435;-39
2023/09/04 13:10:00;;;;;;;15.60;2.03;;;;;;;;;;5030574;28;20025;-39
2023/09/04 13:12:27;;;;;;;17.95;2.30;;;;;;;;;;5030932;28;20032;-39
2023/09/04 13:14:54;;;;;;;11.38;1.98;;;;;;;;;;5028034;28;20041;-39
2023/09/04 13:17:21;;;;;;;11.77;1.90;;;;;;;;;;5030967;28;20526;-39
2023/09/04 13:19:48;;;;;;;11.70;1.83;;;;;;;;;;5030744;28;20067;-39
2023/09/04 13:22:17;;;;;;;12.93;2.53;;;;;;;;;;5021264;28;20416;-39
2023/09/04 13:24:44;;;;;;;16.08;2.13;;;;;;;;;;5030476;28;20396;-39
2023/09/04 13:27:11;;;;;;;10.80;1.88;;;;;;;;;;5030615;28;20075;-39
2023/09/04 13:29:38;;;;;;;17.25;2.05;;;;;;;;;;5030671;28;20044;-39
2023/09/04 13:32:06;;;;;;;14.88;1.42;;;;;;;;;;5029511;28;20092;-39
2023/09/04 13:34:33;;;;;;;12.32;1.90;;;;;;;;;;5024933;28;20044;-40
2023/09/04 13:37:00;;;;;;;21.35;2.45;;;;;;;;;;5024264;28;20029;-44
2023/09/04 13:39:27;;;;;;;21.10;2.78;;;;;;;;;;5030203;28;20026;-42
2023/09/04 13:41:54;;;;;;;15.57;1.90;;;;;;;;;;5029953;28;20042;-42
2023/09/04 13:44:22;;;;;;;23.58;2.08;;;;;;;;;;5029464;28;20030;-40
2023/09/04 13:46:49;;;;;;;8.57;1.55;;;;;;;;;;5029556;28;20037;-40
2023/09/04 13:49:17;;;;;;;18.20;1.55;;;;;;;;;;5030087;28;20025;-40
2023/09/04 13:51:43;;;;;;;21.42;2.22;;;;;;;;;;5030758;28;20088;-40
2023/09/04 13:54:11;;;;;;;19.83;2.45;;;;;;;;;;5030808;28;20029;-39
2023/09/04 13:56:39;;;;;;;23.17;2.95;;;;;;;;;;5030824;28;20037;-40
2023/09/04 13:59:07;;;;;;;27.23;2.92;;;;;;;;;;5031190;28;20033;-42
2023/09/04 14:01:34;;;;;;;21.30;2.50;;;;;;;;;;5031336;28;20029;-40
2023/09/04 14:04:03;;;;;;;24.33;2.63;;;;;;;;;;5031358;28;20064;-39
2023/09/04 14:06:30;;;;;;;13.32;2.10;;;;;;;;;;5031159;28;20030;-40
2023/09/04 14:08:57;;;;;;;19.42;2.35;;;;;;;;;;5031249;28;20112;-40
2023/09/04 14:11:24;;;;;;;23.48;2.80;;;;;;;;;;5031112;28;20060;-40
2023/09/04 14:13:51;;;;;;;20.45;2.65;;;;;;;;;;5033523;28;20033;-39
2023/09/04 14:16:18;;;;;;;22.42;2.28;;;;;;;;;;5034936;28;20061;-39
2023/09/04 14:18:45;;;;;;;23.77;2.70;;;;;;;;;;5034882;28;20491;-40
2023/09/04 14:21:12;;;;;;;16.35;2.83;;;;;;;;;;5033350;28;20033;-39
2023/09/04 14:23:39;;;;;;;19.90;2.67;;;;;;;;;;5034734;28;20033;-40
2023/09/04 14:26:07;;;;;;;19.08;2.50;;;;;;;;;;5034808;28;20037;-40
2023/09/04 14:28:35;;;;;;;20.20;2.40;;;;;;;;;;5034891;28;20041;-39
2023/09/04 14:31:02;;;;;;;18.25;2.35;;;;;;;;;;5034470;28;20577;-40
2023/09/04 14:33:29;;;;;;;18.35;2.10;;;;;;;;;;5034452;28;20083;-40
2023/09/04 14:35:58;;;;;;;17.50;2.40;;;;;;;;;;5034480;28;20030;-39
2023/09/04 14:38:25;;;;;;;18.27;2.22;;;;;;;;;;5034456;28;20037;-39
2023/09/04 14:40:54;;;;;;;15.10;2.53;;;;;;;;;;5033990;28;20028;-40